createdAt,value
2022-12-26T00:02:49.277Z,3.17
2022-12-26T00:07:53.867Z,3.92
2022-12-26T00:13:37.046Z,3.13
2022-12-26T00:18:21.531Z,4.30
2022-12-26T00:23:25.032Z,3.75
2022-12-26T00:28:28.543Z,8.63
2022-12-26T00:33:32.235Z,6.22
2022-12-26T00:38:37.363Z,6.68
2022-12-26T00:43:41.763Z,6.82
2022-12-26T00:48:45.716Z,7.22
2022-12-26T00:53:50.386Z,5.30
2022-12-26T00:58:53.920Z,6.15
2022-12-26T01:03:58.623Z,8.02
2022-12-26T01:09:02.487Z,10.05
2022-12-26T01:14:14.139Z,7.15
2022-12-26T01:19:17.811Z,7.25
2022-12-26T01:24:21.619Z,7.95
2022-12-26T01:29:25.051Z,8.88
2022-12-26T01:34:28.787Z,5.45
2022-12-26T01:39:33.601Z,6.28
2022-12-26T01:45:18.373Z,5.97
2022-12-26T01:50:41.429Z,7.68
2022-12-26T01:55:50.109Z,7.95
2022-12-26T02:00:53.991Z,7.88
2022-12-26T02:06:01.108Z,10.68
2022-12-26T02:11:31.923Z,9.95
2022-12-26T02:16:39.203Z,11.88
2022-12-26T02:22:28.727Z,10.88
2022-12-26T02:27:51.099Z,12.60
2022-12-26T02:33:19.487Z,8.32
2022-12-26T02:38:43.738Z,4.55
2022-12-26T02:44:48.832Z,11.70
2022-12-26T02:50:17.445Z,13.18
2022-12-26T02:55:26.749Z,15.30
2022-12-26T03:00:34.360Z,14.00
2022-12-26T03:05:44.580Z,15.30
2022-12-26T03:10:50.428Z,8.98
2022-12-26T03:15:58.574Z,8.50
2022-12-26T03:21:04.204Z,6.68
2022-12-26T03:26:21.700Z,9.05
2022-12-26T03:31:26.785Z,8.45
2022-12-26T03:36:30.224Z,5.88
2022-12-26T03:41:40.748Z,7.68
2022-12-26T03:47:05.543Z,5.50
2022-12-26T03:52:29.074Z,14.32
2022-12-26T03:57:41.617Z,18.20
2022-12-26T04:02:48.628Z,24.17
2022-12-26T04:07:58.486Z,25.02
2022-12-26T04:13:06.784Z,21.10
2022-12-26T04:18:16.229Z,20.25
2022-12-26T04:23:47.645Z,15.52
2022-12-26T04:28:51.222Z,16.90
2022-12-26T04:34:02.760Z,13.77
2022-12-26T04:39:10.575Z,10.00
2022-12-26T04:44:17.267Z,8.23
2022-12-26T04:49:21.838Z,6.10
2022-12-26T04:54:26.044Z,6.88
2022-12-26T04:59:30.108Z,10.45
2022-12-26T05:04:33.756Z,15.95
2022-12-26T05:09:37.317Z,12.88
2022-12-26T05:14:40.669Z,35.15
2022-12-26T05:24:48.580Z,31.00
2022-12-26T05:29:52.166Z,8.52
2022-12-26T05:34:55.751Z,6.78
2022-12-26T05:39:59.214Z,5.28
2022-12-26T05:45:02.875Z,6.93
2022-12-26T05:50:07.781Z,4.35
2022-12-26T05:55:12.424Z,5.60
2022-12-26T06:00:16.672Z,9.90
2022-12-26T06:05:20.211Z,4.07
2022-12-26T06:12:27.854Z,14.60
2022-12-26T06:17:32.088Z,7.20
2022-12-26T06:22:37.325Z,5.75
2022-12-26T06:27:43.676Z,11.55
2022-12-26T06:32:47.322Z,8.70
2022-12-26T06:37:51.044Z,8.63
2022-12-26T06:42:54.456Z,7.45
2022-12-26T06:53:02.332Z,8.95
2022-12-26T06:58:05.949Z,6.30
2022-12-26T07:03:09.582Z,5.97
2022-12-26T07:08:13.405Z,8.65
2022-12-26T07:13:16.934Z,8.30
2022-12-26T07:18:20.563Z,5.60
2022-12-26T07:23:24.772Z,7.05
2022-12-26T07:28:29.311Z,6.47
2022-12-26T07:33:33.661Z,8.35
2022-12-26T07:38:37.212Z,7.15
2022-12-26T07:43:40.610Z,10.77
2022-12-26T07:53:47.579Z,6.30
2022-12-26T07:58:52.251Z,13.18
2022-12-26T08:03:55.543Z,7.03
2022-12-26T08:08:59.573Z,4.33
2022-12-26T08:14:04.863Z,5.10
2022-12-26T08:19:08.275Z,5.60
2022-12-26T08:24:11.731Z,5.47
2022-12-26T08:29:15.515Z,4.00
2022-12-26T08:34:19.350Z,4.25
2022-12-26T08:39:22.881Z,4.15
2022-12-26T08:44:28.470Z,5.03
2022-12-26T08:49:32.457Z,39.30
2022-12-26T08:59:40.061Z,5.28
2022-12-26T09:04:44.529Z,3.78
2022-12-26T09:14:51.992Z,5.78
2022-12-26T09:19:55.508Z,4.25
2022-12-26T09:25:00.245Z,5.55
2022-12-26T09:30:04.106Z,6.22
2022-12-26T09:35:08.293Z,8.70
2022-12-26T09:40:24.673Z,6.63
2022-12-26T09:45:42.856Z,4.75
2022-12-26T09:50:50.767Z,6.20
2022-12-26T09:56:02.326Z,5.93
2022-12-26T10:01:17.591Z,7.93
2022-12-26T10:06:26.285Z,5.70
2022-12-26T10:11:41.942Z,9.00
2022-12-26T10:16:57.501Z,7.72
2022-12-26T10:22:19.564Z,5.57
2022-12-26T10:27:27.385Z,9.50
2022-12-26T10:32:51.444Z,12.82
2022-12-26T10:37:58.464Z,12.05
2022-12-26T10:43:34.368Z,8.93
2022-12-26T10:48:37.739Z,12.60
2022-12-26T10:53:44.658Z,13.18
2022-12-26T10:58:59.399Z,10.80
2022-12-26T11:04:06.458Z,11.52
2022-12-26T11:09:40.527Z,12.27
2022-12-26T11:14:45.147Z,21.92
2022-12-26T11:19:48.805Z,15.02
2022-12-26T11:25:23.630Z,23.45
2022-12-26T11:30:33.666Z,19.83
2022-12-26T11:35:45.635Z,12.32
2022-12-26T11:40:49.773Z,16.55
2022-12-26T11:45:55.018Z,20.45
2022-12-26T11:50:58.510Z,20.70
2022-12-26T11:56:07.200Z,21.02
2022-12-26T12:01:16.465Z,18.55
2022-12-26T12:06:37.840Z,19.02
2022-12-26T12:11:56.815Z,15.90
2022-12-26T12:17:25.051Z,19.30
2022-12-26T12:23:10.463Z,20.38
2022-12-26T12:28:38.713Z,24.70
2022-12-26T12:34:12.437Z,30.15
2022-12-26T12:39:55.121Z,24.73
2022-12-26T12:45:23.398Z,28.52
2022-12-26T12:50:42.737Z,26.33
2022-12-26T12:56:04.082Z,12.73
2022-12-26T13:01:14.575Z,14.13
2022-12-26T13:06:36.310Z,17.83
2022-12-26T13:11:53.931Z,16.85
2022-12-26T13:17:26.953Z,16.17
2022-12-26T13:22:38.367Z,19.15
2022-12-26T13:27:42.736Z,22.23
2022-12-26T13:32:46.911Z,20.55
2022-12-26T13:37:58.715Z,19.60
2022-12-26T13:43:20.713Z,18.65
2022-12-26T13:48:27.522Z,20.63
2022-12-26T13:53:36.056Z,28.02
2022-12-26T13:59:09.577Z,13.38
2022-12-26T14:04:50.119Z,13.52
2022-12-26T14:09:53.646Z,16.33
2022-12-26T14:15:06.900Z,15.35
2022-12-26T14:20:39.796Z,15.18
2022-12-26T14:26:25.092Z,11.10
2022-12-26T14:31:59.434Z,13.38
2022-12-26T14:37:10.215Z,14.25
2022-12-26T14:42:24.943Z,6.15
2022-12-26T14:47:49.381Z,7.68
2022-12-26T14:52:53.649Z,13.27
2022-12-26T14:57:57.866Z,35.00
2022-12-26T15:03:01.277Z,18.90
2022-12-26T15:08:32.161Z,10.95
2022-12-26T15:13:58.281Z,11.13
2022-12-26T15:19:33.925Z,12.95
2022-12-26T15:25:18.845Z,18.75
2022-12-26T15:30:45.252Z,12.32
2022-12-26T15:36:03.909Z,13.00
2022-12-26T15:41:19.407Z,16.17
2022-12-26T15:46:33.560Z,16.13
2022-12-26T15:51:56.258Z,21.83
2022-12-26T16:07:23.318Z,9.05
2022-12-26T16:12:33.441Z,12.27
2022-12-26T16:17:38.578Z,16.10
2022-12-26T16:22:44.098Z,9.80
2022-12-26T16:27:51.213Z,7.55
2022-12-26T16:32:55.581Z,14.57
2022-12-26T16:38:02.902Z,8.85
2022-12-26T16:43:19.558Z,6.53
2022-12-26T16:48:27.668Z,5.78
2022-12-26T16:53:37.394Z,11.75
2022-12-26T16:58:41.282Z,12.82
2022-12-26T17:04:00.226Z,7.35
2022-12-26T17:09:16.900Z,11.13
2022-12-26T17:14:26.077Z,11.35
2022-12-26T17:19:32.304Z,14.60
2022-12-26T17:24:37.466Z,12.65
2022-12-26T17:29:53.859Z,15.80
2022-12-26T17:35:06.451Z,21.13
2022-12-26T17:40:15.919Z,21.45
2022-12-26T17:45:26.216Z,19.65
2022-12-26T17:50:37.551Z,22.58
2022-12-26T17:55:41.925Z,18.92
2022-12-26T18:00:48.067Z,14.98
2022-12-26T18:05:53.202Z,23.77
2022-12-26T18:11:08.600Z,13.90
2022-12-26T18:16:17.328Z,20.25
2022-12-26T18:21:20.660Z,13.43
2022-12-26T18:26:29.743Z,23.25
2022-12-26T18:31:34.382Z,23.88
2022-12-26T18:36:39.121Z,24.67
2022-12-26T18:41:43.406Z,32.13
2022-12-26T18:46:47.817Z,21.45
2022-12-26T18:51:51.311Z,29.15
2022-12-26T18:56:54.713Z,22.45
2022-12-26T19:02:02.068Z,28.30
2022-12-26T19:07:05.656Z,26.00
2022-12-26T19:12:11.045Z,31.23
2022-12-26T19:17:15.178Z,18.38
2022-12-26T19:22:18.651Z,29.92
2022-12-26T19:27:22.119Z,28.27
2022-12-26T19:32:26.657Z,28.05
2022-12-26T19:37:30.417Z,29.42
2022-12-26T19:42:33.871Z,22.65
2022-12-26T19:47:37.909Z,26.73
2022-12-26T19:52:41.507Z,24.55
2022-12-26T19:57:45.423Z,22.20
2022-12-26T20:02:50.351Z,23.30
2022-12-26T20:07:58.434Z,23.58
2022-12-26T20:13:02.208Z,25.67
2022-12-26T20:18:10.900Z,18.10
2022-12-26T20:23:18.090Z,30.83
2022-12-26T20:28:21.816Z,18.17
2022-12-26T20:33:27.052Z,24.20
2022-12-26T20:38:31.350Z,16.27
2022-12-26T20:43:36.039Z,18.85
2022-12-26T20:48:39.769Z,15.07
2022-12-26T20:53:43.211Z,17.98
2022-12-26T20:58:47.302Z,20.33
2022-12-26T21:03:53.384Z,13.40
2022-12-26T21:08:57.434Z,17.40
2022-12-26T21:14:05.231Z,14.57
2022-12-26T21:19:14.725Z,13.95
2022-12-26T21:24:23.120Z,13.15
2022-12-26T21:29:31.220Z,7.60
2022-12-26T21:34:35.460Z,10.93
2022-12-26T21:39:44.508Z,17.58
2022-12-26T21:44:48.266Z,9.80
2022-12-26T21:49:52.881Z,11.15
2022-12-26T21:54:56.439Z,8.90
2022-12-26T22:00:00.111Z,13.02
2022-12-26T22:05:07.006Z,14.23
2022-12-26T22:10:11.981Z,20.63
2022-12-26T22:15:16.789Z,9.52
2022-12-26T22:20:22.183Z,15.80
2022-12-26T22:25:25.657Z,14.88
2022-12-26T22:30:29.172Z,8.85
2022-12-26T22:35:33.409Z,11.18
2022-12-26T22:40:37.389Z,7.60
2022-12-26T22:45:41.385Z,13.38
2022-12-26T22:50:46.823Z,8.93
2022-12-26T22:55:52.469Z,9.43
2022-12-26T23:00:56.577Z,11.07
2022-12-26T23:06:00.209Z,11.30
2022-12-26T23:11:04.070Z,9.93
2022-12-26T23:16:14.297Z,8.75
2022-12-26T23:21:31.210Z,8.65
2022-12-26T23:26:35.616Z,8.70
2022-12-26T23:31:39.151Z,7.00
2022-12-26T23:36:42.600Z,12.00
2022-12-26T23:41:46.652Z,8.48
2022-12-26T23:46:52.309Z,9.50
2022-12-26T23:51:57.768Z,10.52
2022-12-26T23:57:01.585Z,9.80
